首页
METAR-TAF:

METAR-TAF

机场 :

巴塞羅那, 委内瑞拉

纬度: 10-07N, 经度: 064-41W, 海拔: 7米

当前天气观测

该预报发布于1小时和15分钟前的20:00 UTC
风速12节,风向东北
温度 35°C
气压 1008 hPa
能見度: 9000
散云层高于1300英尺
霾,

METAR: SVBC 172000Z 04012KT 9000 HZ SCT013 35/XX Q1008

时间: 17:15 (21:15 UTC)

预报

该预报发布于5小时和15分钟前的16:00 UTC
预报有效从17日的 18点(UTC)到 18日的 18点(UTC)
风速5节,风向
能见度10公里或以上
散云层高于1600英尺
多云层高于10000英尺
成为
从 17日的 19点(UTC)到 17日的 23点(UTC)
风速4节,风向东转东北
能见度10公里或以上
散云层高于2000英尺
多云层高于1000英尺

TAF: SVBC 171600Z 1718/1818 36005KT 9999 SCT016 BKN100 TX27/19Z TN24/08Z BECMG 1719/1723 07004KT 9999 SCT020 BKN010

超过4000个机场的气象观测和天气预报(METAR&TAF报告)。

可查询的气象台以黄色和红色小点在地图上表示。

将鼠标移到小点上方,可查看气象台名称。

然后点击查看天气观测和预报。

如需切换地图:点击带黑十字的绿色按钮放大地图;点击带横线的绿色按钮缩小地图;或者点击绿色箭头查看邻近地区的地图。


METAR-TAF: